createdAt,value
2023-05-21T00:01:16.886Z,13.50
2023-05-21T00:03:46.088Z,13.50
2023-05-21T00:06:13.763Z,13.50
2023-05-21T00:08:41.306Z,13.40
2023-05-21T00:11:08.509Z,13.50
2023-05-21T00:13:35.521Z,13.50
2023-05-21T00:16:02.425Z,13.40
2023-05-21T00:18:32.214Z,13.40
2023-05-21T00:21:00.484Z,13.40
2023-05-21T00:23:27.758Z,13.40
2023-05-21T00:25:54.630Z,13.30
2023-05-21T00:28:21.522Z,13.20
2023-05-21T00:30:48.407Z,13.20
2023-05-21T00:33:15.692Z,13.30
2023-05-21T00:35:42.703Z,13.20
2023-05-21T00:38:09.599Z,13.30
2023-05-21T00:40:36.512Z,13.20
2023-05-21T00:43:03.423Z,13.10
2023-05-21T00:45:30.414Z,12.90
2023-05-21T00:47:57.755Z,12.90
2023-05-21T00:50:26.101Z,12.90
2023-05-21T00:52:53.314Z,13.00
2023-05-21T00:55:20.449Z,13.10
2023-05-21T00:57:47.560Z,13.10
2023-05-21T01:00:15.234Z,13.10
2023-05-21T01:02:44.192Z,13.20
2023-05-21T01:05:11.251Z,13.10
2023-05-21T01:07:41.404Z,12.90
2023-05-21T01:10:11.704Z,12.90
2023-05-21T01:12:41.663Z,12.80
2023-05-21T01:15:09.353Z,12.80
2023-05-21T01:17:36.392Z,12.70
2023-05-21T01:20:10.241Z,12.60
2023-05-21T01:22:53.895Z,12.50
2023-05-21T01:25:21.302Z,12.40
2023-05-21T01:27:49.050Z,12.40
2023-05-21T01:30:18.231Z,12.50
2023-05-21T01:32:51.040Z,12.50
2023-05-21T01:35:29.810Z,12.50
2023-05-21T01:38:13.608Z,12.50
2023-05-21T01:40:40.694Z,12.40
2023-05-21T01:43:09.412Z,12.40
2023-05-21T01:45:40.892Z,12.40
2023-05-21T01:48:09.281Z,12.40
2023-05-21T01:50:38.485Z,12.40
2023-05-21T01:53:06.073Z,12.40
2023-05-21T01:55:33.482Z,12.40
2023-05-21T01:58:02.430Z,12.30
2023-05-21T02:00:30.868Z,12.20
2023-05-21T02:02:58.754Z,12.00
2023-05-21T02:05:26.648Z,12.00
2023-05-21T02:07:56.983Z,12.20
2023-05-21T02:10:23.980Z,12.30
2023-05-21T02:12:50.935Z,12.30
2023-05-21T02:15:20.534Z,12.30
2023-05-21T02:17:47.408Z,12.30
2023-05-21T02:20:14.472Z,12.30
2023-05-21T02:22:43.422Z,12.20
2023-05-21T02:25:11.467Z,12.20
2023-05-21T02:27:39.513Z,12.00
2023-05-21T02:30:08.936Z,11.90
2023-05-21T02:32:36.555Z,11.90
2023-05-21T02:35:05.251Z,11.90
2023-05-21T02:37:35.452Z,12.10
2023-05-21T02:40:05.844Z,12.00
2023-05-21T02:42:32.848Z,12.00
2023-05-21T02:44:59.743Z,11.90
2023-05-21T02:47:26.753Z,11.90
2023-05-21T02:49:54.183Z,11.90
2023-05-21T02:52:24.530Z,11.90
2023-05-21T02:54:52.130Z,11.80
2023-05-21T02:57:19.304Z,11.90
2023-05-21T02:59:46.267Z,11.90
2023-05-21T03:02:13.213Z,11.80
2023-05-21T03:04:46.230Z,11.80
2023-05-21T03:07:20.143Z,11.80
2023-05-21T03:09:47.361Z,11.80
2023-05-21T03:12:14.440Z,11.80
2023-05-21T03:14:46.321Z,11.90
2023-05-21T03:17:17.062Z,11.70
2023-05-21T03:19:44.738Z,11.60
2023-05-21T03:22:12.019Z,11.60
2023-05-21T03:24:39.383Z,11.50
2023-05-21T03:27:06.957Z,11.40
2023-05-21T03:29:34.173Z,11.20
2023-05-21T03:32:02.074Z,11.10
2023-05-21T03:34:29.246Z,11.10
2023-05-21T03:36:56.074Z,11.20
2023-05-21T03:39:22.912Z,11.30
2023-05-21T03:41:49.820Z,11.40
2023-05-21T03:44:16.707Z,11.40
2023-05-21T03:46:45.440Z,11.50
2023-05-21T03:49:12.382Z,11.60
2023-05-21T03:51:39.607Z,11.50
2023-05-21T03:54:06.553Z,11.50
2023-05-21T03:56:33.502Z,11.40
2023-05-21T03:59:01.315Z,11.40
2023-05-21T04:01:28.489Z,11.30
2023-05-21T04:03:55.811Z,11.30
2023-05-21T04:06:22.920Z,11.30
2023-05-21T04:08:50.216Z,11.40
2023-05-21T04:11:17.185Z,11.40
2023-05-21T04:13:44.152Z,11.50
2023-05-21T04:16:14.581Z,11.40
2023-05-21T04:18:44.161Z,11.50
2023-05-21T04:21:12.707Z,11.60
2023-05-21T04:23:40.177Z,11.70
2023-05-21T04:26:07.830Z,11.80
2023-05-21T04:28:35.416Z,11.80
2023-05-21T04:31:02.769Z,11.90
2023-05-21T04:33:30.388Z,12.10
2023-05-21T04:35:57.819Z,12.20
2023-05-21T04:38:25.895Z,12.20
2023-05-21T04:40:53.207Z,12.30
2023-05-21T04:43:28.217Z,12.40
2023-05-21T04:45:55.418Z,12.40
2023-05-21T04:48:26.909Z,12.60
2023-05-21T04:50:54.106Z,12.70
2023-05-21T04:53:21.008Z,12.80
2023-05-21T04:55:48.074Z,12.80
2023-05-21T04:58:17.874Z,12.90
2023-05-21T05:00:50.935Z,12.90
2023-05-21T05:03:18.239Z,13.00
2023-05-21T05:05:45.717Z,13.00
2023-05-21T05:08:14.754Z,13.20
2023-05-21T05:10:42.902Z,13.40
2023-05-21T05:13:09.957Z,13.60
2023-05-21T05:15:37.166Z,13.70
2023-05-21T05:18:04.323Z,13.80
2023-05-21T05:20:31.183Z,13.90
2023-05-21T05:22:58.064Z,14.00
2023-05-21T05:25:24.980Z,14.20
2023-05-21T05:27:51.853Z,14.40
2023-05-21T05:30:20.118Z,14.40
2023-05-21T05:32:47.043Z,14.60
2023-05-21T05:35:13.908Z,14.70
2023-05-21T05:37:40.739Z,14.80
2023-05-21T05:40:08.122Z,14.90
2023-05-21T05:42:35.028Z,15.00
2023-05-21T05:45:01.897Z,15.20
2023-05-21T05:47:29.646Z,15.30
2023-05-21T05:49:56.669Z,15.40
2023-05-21T05:52:23.528Z,15.60
2023-05-21T05:54:50.353Z,15.70
2023-05-21T05:57:17.179Z,15.80
2023-05-21T05:59:44.011Z,15.90
2023-05-21T06:02:10.920Z,15.90
2023-05-21T06:04:37.773Z,16.00
2023-05-21T06:07:04.867Z,16.10
2023-05-21T06:09:31.758Z,16.20
2023-05-21T06:11:58.668Z,16.30
2023-05-21T06:14:25.718Z,16.40
2023-05-21T06:16:52.544Z,16.40
2023-05-21T06:19:20.060Z,16.60
2023-05-21T06:21:47.129Z,16.60
2023-05-21T06:24:13.975Z,16.80
2023-05-21T06:26:40.813Z,16.90
2023-05-21T06:29:07.807Z,17.10
2023-05-21T06:31:34.706Z,17.20
2023-05-21T06:34:01.849Z,17.30
2023-05-21T06:36:30.116Z,17.40
2023-05-21T06:38:57.417Z,17.40
2023-05-21T06:41:24.418Z,17.40
2023-05-21T06:43:51.592Z,17.40
2023-05-21T06:46:18.818Z,17.40
2023-05-21T06:48:48.533Z,17.50
2023-05-21T06:51:15.514Z,17.50
2023-05-21T06:53:42.335Z,17.60
2023-05-21T06:56:09.195Z,17.60
2023-05-21T06:58:36.092Z,17.70
2023-05-21T07:01:03.076Z,17.80
2023-05-21T07:03:30.220Z,17.80
2023-05-21T07:05:59.961Z,18.00
2023-05-21T07:08:27.257Z,18.10
2023-05-21T07:10:54.161Z,18.30
2023-05-21T07:13:20.982Z,18.40
2023-05-21T07:15:47.965Z,18.60
2023-05-21T07:18:15.283Z,18.80
2023-05-21T07:20:42.135Z,19.00
2023-05-21T07:23:08.948Z,19.20
2023-05-21T07:25:36.198Z,19.30
2023-05-21T07:28:05.196Z,19.50
2023-05-21T07:30:33.358Z,19.80
2023-05-21T07:33:00.194Z,20.20
2023-05-21T07:35:27.186Z,20.40
2023-05-21T07:37:54.034Z,20.60
2023-05-21T07:40:20.956Z,20.70
2023-05-21T07:42:48.056Z,20.80
2023-05-21T07:45:14.979Z,20.90
2023-05-21T07:47:42.493Z,21.10
2023-05-21T07:50:10.027Z,21.10
2023-05-21T07:52:36.893Z,21.30
2023-05-21T07:55:03.881Z,21.40
2023-05-21T07:57:30.732Z,21.70
2023-05-21T07:59:57.672Z,21.80
2023-05-21T08:02:24.621Z,22.00
2023-05-21T08:04:52.609Z,22.10
2023-05-21T08:07:21.444Z,22.20
2023-05-21T08:09:48.386Z,22.30
2023-05-21T08:12:16.051Z,22.40
2023-05-21T08:14:43.167Z,22.80
2023-05-21T08:17:11.486Z,22.90
2023-05-21T08:19:38.578Z,22.90
2023-05-21T08:22:08.319Z,23.00
2023-05-21T08:24:35.245Z,23.20
2023-05-21T08:27:02.137Z,23.30
2023-05-21T08:29:29.109Z,23.20
2023-05-21T08:31:56.430Z,23.30
2023-05-21T08:34:23.404Z,23.10
2023-05-21T08:36:50.452Z,22.90
2023-05-21T08:39:17.488Z,22.80
2023-05-21T08:41:49.696Z,22.60
2023-05-21T08:44:21.411Z,22.50
2023-05-21T08:46:51.151Z,22.40
2023-05-21T08:49:22.973Z,22.40
2023-05-21T08:51:51.428Z,22.50
2023-05-21T08:54:18.530Z,22.60
2023-05-21T08:56:47.165Z,22.70
2023-05-21T08:59:15.142Z,22.80
2023-05-21T09:01:42.416Z,22.80
2023-05-21T09:04:20.101Z,22.90
2023-05-21T09:06:48.498Z,23.00
2023-05-21T09:09:33.139Z,23.00
2023-05-21T09:12:00.108Z,23.10
2023-05-21T09:14:27.840Z,23.20
2023-05-21T09:16:54.767Z,23.30
2023-05-21T09:19:22.396Z,23.40
2023-05-21T09:21:51.916Z,23.60
2023-05-21T09:24:22.785Z,23.70
2023-05-21T09:26:49.874Z,23.80
2023-05-21T09:29:16.777Z,23.90
2023-05-21T09:31:46.941Z,24.00
2023-05-21T09:34:14.237Z,24.00
2023-05-21T09:36:41.170Z,24.10
2023-05-21T09:39:08.595Z,24.20
2023-05-21T09:41:36.786Z,24.40
2023-05-21T09:44:04.070Z,24.40
2023-05-21T09:46:42.969Z,24.50
2023-05-21T09:49:31.243Z,24.60
2023-05-21T09:51:59.015Z,24.80
2023-05-21T09:54:32.043Z,24.80
2023-05-21T09:57:02.102Z,24.80
2023-05-21T09:59:41.194Z,24.90
2023-05-21T10:02:23.355Z,24.90
2023-05-21T10:04:52.125Z,24.80
2023-05-21T10:07:27.072Z,24.80
2023-05-21T10:09:56.525Z,24.80
2023-05-21T10:12:27.614Z,24.90
2023-05-21T10:15:03.419Z,25.00
2023-05-21T10:17:31.486Z,24.80
2023-05-21T10:19:59.993Z,24.90
2023-05-21T10:22:28.153Z,24.90
2023-05-21T10:24:55.428Z,24.80
2023-05-21T10:27:23.257Z,24.90
2023-05-21T10:29:50.779Z,25.00
2023-05-21T10:32:18.290Z,24.90
2023-05-21T10:34:46.741Z,24.90
2023-05-21T10:37:13.923Z,24.90
2023-05-21T10:39:42.333Z,25.00
2023-05-21T10:42:33.340Z,24.90
2023-05-21T10:45:06.578Z,25.00
2023-05-21T10:47:54.206Z,25.20
2023-05-21T10:50:48.576Z,25.30
2023-05-21T10:53:33.831Z,25.20
2023-05-21T10:56:24.904Z,25.20
2023-05-21T10:59:18.295Z,25.10
2023-05-21T11:01:45.649Z,25.00
2023-05-21T11:04:15.774Z,25.20
2023-05-21T11:06:48.447Z,25.30
2023-05-21T11:09:16.083Z,25.40
2023-05-21T11:11:51.252Z,25.60
2023-05-21T11:14:32.617Z,25.50
2023-05-21T11:17:00.813Z,25.40
2023-05-21T11:19:42.209Z,25.60
2023-05-21T11:22:29.477Z,25.60
2023-05-21T11:25:01.144Z,25.90
2023-05-21T11:27:33.854Z,26.00
2023-05-21T11:30:10.356Z,25.90
2023-05-21T11:32:39.090Z,25.80
2023-05-21T11:35:06.868Z,25.90
2023-05-21T11:37:34.988Z,26.10
2023-05-21T11:40:26.150Z,26.10
2023-05-21T11:42:57.265Z,26.20
2023-05-21T11:45:31.389Z,26.10
2023-05-21T11:47:58.593Z,26.00
2023-05-21T11:50:25.904Z,26.20
2023-05-21T11:52:53.023Z,26.20
2023-05-21T11:55:25.840Z,26.30
2023-05-21T11:57:54.266Z,26.30
2023-05-21T12:00:21.651Z,26.50
2023-05-21T12:02:52.553Z,26.60
2023-05-21T12:05:19.731Z,26.60
2023-05-21T12:07:50.614Z,26.50
2023-05-21T12:10:21.422Z,26.50
2023-05-21T12:12:55.816Z,26.40
2023-05-21T12:15:24.791Z,26.30
2023-05-21T12:17:53.210Z,26.20
2023-05-21T12:20:20.913Z,26.40
2023-05-21T12:22:49.562Z,26.30
2023-05-21T12:25:20.119Z,26.30
2023-05-21T12:27:48.581Z,26.50
2023-05-21T12:30:15.791Z,26.40
2023-05-21T12:32:46.114Z,26.40
2023-05-21T12:35:24.289Z,26.60
2023-05-21T12:37:52.612Z,26.80
2023-05-21T12:40:20.206Z,27.20
2023-05-21T12:42:47.183Z,27.40
2023-05-21T12:45:14.647Z,27.80
2023-05-21T12:47:42.576Z,28.10
2023-05-21T12:50:13.977Z,28.60
2023-05-21T12:52:43.014Z,28.90
2023-05-21T12:55:13.012Z,29.30
2023-05-21T12:57:39.899Z,29.40
2023-05-21T13:00:07.936Z,29.70
2023-05-21T13:02:39.834Z,29.80
2023-05-21T13:05:15.287Z,29.70
2023-05-21T13:07:44.048Z,29.30
2023-05-21T13:10:12.262Z,29.40
2023-05-21T13:12:40.322Z,29.10
2023-05-21T13:15:08.493Z,29.40
2023-05-21T13:17:35.931Z,30.20
2023-05-21T13:20:08.908Z,31.10
2023-05-21T13:22:43.765Z,31.50
2023-05-21T13:25:12.018Z,32.20
2023-05-21T13:27:39.701Z,32.80
2023-05-21T13:30:07.956Z,32.60
2023-05-21T13:32:35.607Z,33.20
2023-05-21T13:35:02.628Z,33.30
2023-05-21T13:37:30.747Z,32.50
2023-05-21T13:39:58.112Z,32.30
2023-05-21T13:42:26.024Z,32.00
2023-05-21T13:44:52.898Z,32.10
2023-05-21T13:47:19.868Z,32.50
2023-05-21T13:49:46.922Z,32.80
2023-05-21T13:52:13.892Z,32.70
2023-05-21T13:54:42.017Z,32.80
2023-05-21T13:57:09.202Z,33.10
2023-05-21T13:59:36.110Z,33.20
2023-05-21T14:02:03.073Z,32.90
2023-05-21T14:04:30.250Z,32.70
2023-05-21T14:06:57.214Z,32.70
2023-05-21T14:09:27.112Z,32.70
2023-05-21T14:11:55.145Z,32.60
2023-05-21T14:14:22.693Z,32.60
2023-05-21T14:16:50.472Z,32.50
2023-05-21T14:19:17.737Z,32.60
2023-05-21T14:21:44.873Z,33.10
2023-05-21T14:24:11.849Z,32.70
2023-05-21T14:26:41.468Z,33.30
2023-05-21T14:29:08.869Z,33.40
2023-05-21T14:31:37.096Z,33.50
2023-05-21T14:34:05.200Z,34.20
2023-05-21T14:36:32.638Z,34.80
2023-05-21T14:38:59.717Z,34.80
2023-05-21T14:41:27.759Z,34.60
2023-05-21T14:43:54.729Z,34.50
2023-05-21T14:46:22.064Z,34.90
2023-05-21T14:48:48.968Z,35.10
2023-05-21T14:51:16.026Z,34.80
2023-05-21T14:53:42.899Z,35.00
2023-05-21T14:56:09.883Z,34.90
2023-05-21T14:58:36.734Z,34.40
2023-05-21T15:01:04.361Z,34.50
2023-05-21T15:03:31.571Z,34.00
2023-05-21T15:05:58.671Z,33.50
2023-05-21T15:08:25.837Z,33.80
2023-05-21T15:10:52.903Z,34.00
2023-05-21T15:13:21.278Z,33.80
2023-05-21T15:15:49.796Z,33.80
2023-05-21T15:18:19.648Z,34.20
2023-05-21T15:20:46.490Z,34.30
2023-05-21T15:23:17.242Z,33.80
2023-05-21T15:25:45.690Z,33.30
2023-05-21T15:28:12.868Z,33.20
2023-05-21T15:30:40.508Z,33.30
2023-05-21T15:33:07.567Z,33.30
2023-05-21T15:35:36.410Z,33.50
2023-05-21T15:38:03.784Z,33.40
2023-05-21T15:40:32.176Z,33.70
2023-05-21T15:42:59.376Z,34.00
2023-05-21T15:45:26.405Z,34.30
2023-05-21T15:47:53.338Z,34.60
2023-05-21T15:50:20.414Z,34.80
2023-05-21T15:52:47.283Z,34.80
2023-05-21T15:55:14.488Z,35.00
2023-05-21T15:57:41.485Z,34.90
2023-05-21T16:00:09.922Z,34.80
2023-05-21T16:02:37.151Z,34.00
2023-05-21T16:05:04.301Z,33.50
2023-05-21T16:07:31.517Z,33.60
2023-05-21T16:09:58.496Z,33.80
2023-05-21T16:12:25.772Z,33.80
2023-05-21T16:14:52.862Z,33.80
2023-05-21T16:17:19.970Z,33.90
2023-05-21T16:19:47.580Z,34.00
2023-05-21T16:22:15.075Z,33.90
2023-05-21T16:24:41.980Z,34.00
2023-05-21T16:27:08.835Z,33.70
2023-05-21T16:29:36.102Z,34.20
2023-05-21T16:32:03.880Z,33.90
2023-05-21T16:34:31.053Z,33.60
2023-05-21T16:36:58.697Z,33.40
2023-05-21T16:39:26.298Z,33.00
2023-05-21T16:41:55.154Z,33.20
2023-05-21T16:44:22.087Z,32.90
2023-05-21T16:46:48.954Z,32.60
2023-05-21T16:49:15.799Z,32.70
2023-05-21T16:51:42.678Z,32.80
2023-05-21T16:54:09.610Z,32.50
2023-05-21T16:56:36.604Z,32.30
2023-05-21T16:59:03.490Z,32.10
2023-05-21T17:01:30.448Z,32.00
2023-05-21T17:03:57.450Z,32.10
2023-05-21T17:06:24.570Z,32.00
2023-05-21T17:08:51.510Z,32.00
2023-05-21T17:11:18.381Z,31.50
2023-05-21T17:13:48.096Z,30.40
2023-05-21T17:16:15.325Z,29.90
2023-05-21T17:18:42.289Z,29.10
2023-05-21T17:21:09.859Z,28.60
2023-05-21T17:23:36.752Z,28.10
2023-05-21T17:26:03.675Z,27.30
2023-05-21T17:28:30.608Z,27.00
2023-05-21T17:30:57.987Z,26.80
2023-05-21T17:33:25.151Z,26.50
2023-05-21T17:35:52.036Z,26.30
2023-05-21T17:38:18.891Z,25.90
2023-05-21T17:40:45.841Z,25.80
2023-05-21T17:43:12.734Z,25.80
2023-05-21T17:45:40.036Z,25.60
2023-05-21T17:48:07.135Z,25.50
2023-05-21T17:50:34.292Z,25.40
2023-05-21T17:53:01.250Z,25.20
2023-05-21T17:55:28.152Z,25.20
2023-05-21T17:57:55.135Z,25.20
2023-05-21T18:00:22.052Z,25.20
2023-05-21T18:02:49.049Z,24.90
2023-05-21T18:05:16.142Z,24.90
2023-05-21T18:07:43.048Z,24.80
2023-05-21T18:10:10.186Z,24.80
2023-05-21T18:12:37.033Z,24.60
2023-05-21T18:15:04.117Z,24.50
2023-05-21T18:17:32.437Z,24.40
2023-05-21T18:19:59.314Z,24.30
2023-05-21T18:22:26.174Z,24.20
2023-05-21T18:24:53.052Z,24.20
2023-05-21T18:27:19.960Z,24.20
2023-05-21T18:29:48.956Z,24.10
2023-05-21T18:32:16.700Z,23.90
2023-05-21T18:34:43.952Z,23.90
2023-05-21T18:37:11.471Z,23.80
2023-05-21T18:39:38.370Z,23.70
2023-05-21T18:44:39.030Z,23.50
2023-05-21T18:47:07.604Z,23.50
2023-05-21T18:49:35.931Z,23.50
2023-05-21T18:52:04.039Z,23.50
2023-05-21T18:54:31.814Z,23.50
2023-05-21T18:57:00.422Z,23.50
2023-05-21T18:59:28.710Z,23.30
2023-05-21T19:01:55.755Z,23.20
2023-05-21T19:04:22.830Z,23.20
2023-05-21T19:06:49.735Z,23.10
2023-05-21T19:09:16.862Z,23.00
2023-05-21T19:11:43.749Z,22.90
2023-05-21T19:14:10.680Z,22.90
2023-05-21T19:16:37.578Z,22.80
2023-05-21T19:19:04.510Z,22.80
2023-05-21T19:21:31.720Z,22.70
2023-05-21T19:23:58.945Z,22.60
2023-05-21T19:26:25.774Z,22.60
2023-05-21T19:28:55.590Z,22.50
2023-05-21T19:31:23.260Z,22.40
2023-05-21T19:33:50.641Z,22.40
2023-05-21T19:36:18.625Z,22.30
2023-05-21T19:38:48.092Z,22.20
2023-05-21T19:41:16.376Z,22.20
2023-05-21T19:43:43.335Z,22.00
2023-05-21T19:46:10.479Z,21.80
2023-05-21T19:48:37.403Z,21.80
2023-05-21T19:51:04.441Z,21.60
2023-05-21T19:53:31.321Z,21.40
2023-05-21T19:55:58.242Z,21.10
2023-05-21T19:58:26.925Z,20.80
2023-05-21T20:00:59.231Z,20.60
2023-05-21T20:03:27.123Z,20.40
2023-05-21T20:05:54.529Z,20.30
2023-05-21T20:08:21.669Z,20.10
2023-05-21T20:10:51.372Z,19.90
2023-05-21T20:13:19.246Z,19.90
2023-05-21T20:15:47.814Z,19.90
2023-05-21T20:18:15.469Z,19.80
2023-05-21T20:20:43.358Z,19.60
2023-05-21T20:23:10.461Z,19.50
2023-05-21T20:25:37.352Z,19.40
2023-05-21T20:28:05.299Z,19.40
2023-05-21T20:30:34.149Z,19.40
2023-05-21T20:33:02.284Z,19.50
2023-05-21T20:35:30.455Z,19.40
2023-05-21T20:37:57.608Z,19.10
2023-05-21T20:40:24.797Z,18.90
2023-05-21T20:42:53.507Z,18.70
2023-05-21T20:45:21.967Z,18.60
2023-05-21T20:47:49.908Z,18.30
2023-05-21T20:50:25.750Z,18.10
2023-05-21T20:52:52.657Z,17.90
2023-05-21T20:55:20.775Z,17.80
2023-05-21T20:57:47.684Z,17.50
2023-05-21T21:00:16.149Z,17.20
2023-05-21T21:02:43.802Z,16.80
2023-05-21T21:05:11.387Z,16.80
2023-05-21T21:07:38.304Z,16.60
2023-05-21T21:10:05.907Z,16.60
2023-05-21T21:12:32.818Z,16.40
2023-05-21T21:14:59.694Z,16.30
2023-05-21T21:17:26.637Z,16.30
2023-05-21T21:19:53.536Z,16.30
2023-05-21T21:22:20.944Z,16.10
2023-05-21T21:24:48.043Z,15.90
2023-05-21T21:27:14.995Z,15.80
2023-05-21T21:29:41.960Z,15.80
2023-05-21T21:32:08.846Z,15.60
2023-05-21T21:34:35.905Z,15.70
2023-05-21T21:37:02.859Z,15.80
2023-05-21T21:39:29.701Z,15.70
2023-05-21T21:41:56.629Z,15.80
2023-05-21T21:44:23.631Z,15.80
2023-05-21T21:46:50.498Z,15.80
2023-05-21T21:49:17.612Z,15.80
2023-05-21T21:51:44.849Z,15.60
2023-05-21T21:54:12.018Z,15.30
2023-05-21T21:56:38.874Z,15.30
2023-05-21T21:59:05.876Z,15.20
2023-05-21T22:01:33.138Z,15.30
2023-05-21T22:04:00.059Z,15.30
2023-05-21T22:06:27.711Z,15.10
2023-05-21T22:08:55.001Z,15.00
2023-05-21T22:11:22.709Z,14.80
2023-05-21T22:13:49.667Z,14.60
2023-05-21T22:16:16.576Z,14.50
2023-05-21T22:18:43.703Z,14.50
2023-05-21T22:21:14.105Z,14.60
2023-05-21T22:23:41.332Z,14.60
2023-05-21T22:26:09.230Z,14.60
2023-05-21T22:28:36.138Z,14.60
2023-05-21T22:31:03.382Z,14.70
2023-05-21T22:33:30.679Z,14.70
2023-05-21T22:35:58.110Z,14.70
2023-05-21T22:38:25.824Z,14.50
2023-05-21T22:40:52.784Z,14.30
2023-05-21T22:43:19.837Z,14.20
2023-05-21T22:45:46.971Z,14.10
2023-05-21T22:48:14.308Z,13.90
2023-05-21T22:50:41.391Z,13.90
2023-05-21T22:53:08.578Z,13.90
2023-05-21T22:55:35.483Z,13.90
2023-05-21T22:58:02.378Z,13.80
2023-05-21T23:00:29.624Z,13.80
2023-05-21T23:02:56.692Z,13.80
2023-05-21T23:05:23.933Z,13.70
2023-05-21T23:07:51.081Z,13.60
2023-05-21T23:10:18.030Z,13.70
2023-05-21T23:12:44.891Z,13.60
2023-05-21T23:15:11.980Z,13.60
2023-05-21T23:17:38.920Z,13.50
2023-05-21T23:20:07.348Z,13.50
2023-05-21T23:22:34.893Z,13.40
2023-05-21T23:25:02.224Z,13.40
2023-05-21T23:27:29.506Z,13.30
2023-05-21T23:29:56.510Z,13.30
2023-05-21T23:32:23.869Z,13.30
2023-05-21T23:34:50.946Z,13.30
2023-05-21T23:37:18.618Z,13.20
2023-05-21T23:39:49.303Z,13.10
2023-05-21T23:42:17.413Z,13.10
2023-05-21T23:44:44.544Z,13.10
2023-05-21T23:47:11.405Z,13.10
2023-05-21T23:49:38.910Z,13.10
2023-05-21T23:52:06.265Z,13.00
2023-05-21T23:54:33.130Z,12.80
2023-05-21T23:56:59.994Z,12.80
2023-05-21T23:59:26.903Z,12.60
